createdAt,value
2018-06-15T00:01:11.168Z,12.60
2018-06-15T00:04:16.846Z,12.07
2018-06-15T00:07:21.077Z,12.67
2018-06-15T00:10:26.217Z,12.23
2018-06-15T00:13:30.534Z,15.47
2018-06-15T00:16:35.161Z,11.87
2018-06-15T00:19:40.732Z,13.93
2018-06-15T00:22:45.152Z,11.77
2018-06-15T00:25:49.556Z,12.23
2018-06-15T00:28:55.869Z,10.90
2018-06-15T00:32:02.177Z,10.10
2018-06-15T00:35:06.631Z,13.57
2018-06-15T00:38:11.544Z,13.60
2018-06-15T00:41:16.375Z,11.83
2018-06-15T00:44:20.998Z,12.67
2018-06-15T00:47:25.448Z,13.33
2018-06-15T00:50:29.758Z,13.50
2018-06-15T00:53:34.287Z,13.47
2018-06-15T00:56:50.867Z,16.33
2018-06-15T00:59:56.440Z,12.53
2018-06-15T01:03:01.693Z,14.50
2018-06-15T01:06:06.929Z,12.70
2018-06-15T01:09:11.196Z,11.53
2018-06-15T01:12:19.039Z,13.93
2018-06-15T01:15:23.349Z,12.73
2018-06-15T01:18:27.669Z,12.83
2018-06-15T01:21:32.091Z,12.57
2018-06-15T01:24:36.335Z,10.93
2018-06-15T01:27:40.680Z,13.73
2018-06-15T01:30:44.952Z,12.93
2018-06-15T01:33:49.914Z,16.83
2018-06-15T01:36:57.090Z,12.60
2018-06-15T01:40:02.324Z,12.40
2018-06-15T01:43:07.767Z,12.10
2018-06-15T01:46:12.035Z,12.90
2018-06-15T01:49:17.214Z,12.97
2018-06-15T01:52:21.542Z,11.93
2018-06-15T01:55:26.175Z,13.80
2018-06-15T01:58:31.638Z,13.07
2018-06-15T02:01:36.304Z,13.47
2018-06-15T02:04:41.165Z,13.47
2018-06-15T02:07:46.658Z,13.37
2018-06-15T02:10:50.951Z,12.50
2018-06-15T02:13:55.253Z,14.23
2018-06-15T02:16:59.735Z,13.80
2018-06-15T02:20:05.717Z,13.17
2018-06-15T02:23:11.044Z,13.13
2018-06-15T02:26:15.364Z,12.43
2018-06-15T02:29:19.729Z,12.80
2018-06-15T02:32:24.541Z,11.60
2018-06-15T02:35:33.298Z,13.97
2018-06-15T02:38:37.622Z,12.23
2018-06-15T02:41:42.042Z,13.40
2018-06-15T02:44:47.232Z,14.40
2018-06-15T02:47:51.530Z,13.43
2018-06-15T02:50:56.018Z,11.97
2018-06-15T02:54:00.266Z,11.77
2018-06-15T02:57:04.621Z,11.70
2018-06-15T03:00:09.694Z,11.33
2018-06-15T03:03:13.997Z,12.23
2018-06-15T03:06:18.489Z,15.97
2018-06-15T03:09:22.857Z,13.40
2018-06-15T03:12:27.223Z,13.80
2018-06-15T03:15:31.592Z,12.43
2018-06-15T03:18:42.729Z,11.40
2018-06-15T03:21:48.536Z,15.00
2018-06-15T03:24:52.921Z,11.47
2018-06-15T03:27:57.771Z,14.13
2018-06-15T03:31:01.926Z,11.30
2018-06-15T03:34:06.284Z,13.37
2018-06-15T03:37:13.129Z,14.47
2018-06-15T03:40:17.416Z,12.93
2018-06-15T03:43:23.528Z,10.63
2018-06-15T03:46:28.580Z,12.93
2018-06-15T03:49:35.532Z,12.63
2018-06-15T03:52:40.397Z,13.73
2018-06-15T03:55:44.660Z,10.97
2018-06-15T03:58:49.059Z,13.53
2018-06-15T04:01:53.252Z,12.73
2018-06-15T04:05:04.508Z,12.00
2018-06-15T04:08:09.493Z,11.50
2018-06-15T04:11:16.083Z,12.40
2018-06-15T04:14:20.487Z,12.57
2018-06-15T04:17:25.549Z,12.90
2018-06-15T04:20:31.563Z,12.37
2018-06-15T04:23:36.137Z,13.57
2018-06-15T04:26:41.626Z,13.27
2018-06-15T04:29:45.913Z,14.67
2018-06-15T04:32:50.218Z,12.80
2018-06-15T04:35:55.033Z,13.87
2018-06-15T04:38:59.471Z,12.60
2018-06-15T04:42:03.752Z,10.83
2018-06-15T04:45:08.419Z,11.70
2018-06-15T04:48:12.691Z,14.23
2018-06-15T04:51:17.025Z,12.77
2018-06-15T04:54:21.350Z,11.57
2018-06-15T04:57:26.148Z,12.50
2018-06-15T05:00:30.841Z,13.50
2018-06-15T05:03:35.932Z,12.30
2018-06-15T05:06:41.851Z,11.43
2018-06-15T05:09:46.120Z,10.50
2018-06-15T05:12:50.416Z,12.80
2018-06-15T05:15:55.118Z,13.63
2018-06-15T05:18:59.449Z,12.87
2018-06-15T05:22:04.652Z,15.03
2018-06-15T05:25:09.349Z,13.53
2018-06-15T05:28:14.480Z,13.70
2018-06-15T05:31:20.645Z,11.23
2018-06-15T05:34:25.104Z,11.93
2018-06-15T05:37:29.544Z,11.03
2018-06-15T05:40:34.156Z,11.40
2018-06-15T05:43:38.406Z,12.63
2018-06-15T05:46:42.687Z,13.47
2018-06-15T05:49:46.972Z,10.33
2018-06-15T05:52:52.631Z,11.17
2018-06-15T05:55:57.003Z,11.33
2018-06-15T05:59:01.382Z,12.47
2018-06-15T06:02:06.274Z,12.17
2018-06-15T06:05:10.671Z,10.23
2018-06-15T06:08:15.493Z,9.27
2018-06-15T06:11:20.019Z,10.70
2018-06-15T06:14:24.687Z,11.43
2018-06-15T06:17:28.967Z,10.13
2018-06-15T06:20:34.077Z,13.00
2018-06-15T06:23:38.428Z,12.33
2018-06-15T06:26:42.801Z,9.53
2018-06-15T06:29:47.203Z,11.67
2018-06-15T06:32:52.479Z,10.87
2018-06-15T06:35:56.770Z,9.50
2018-06-15T06:39:02.027Z,12.27
2018-06-15T06:42:06.982Z,11.47
2018-06-15T06:45:11.217Z,11.60
2018-06-15T06:48:16.268Z,10.47
2018-06-15T06:51:20.204Z,9.93
2018-06-15T06:54:24.716Z,13.73
2018-06-15T06:57:29.052Z,16.60
2018-06-15T07:00:33.472Z,12.17
2018-06-15T07:03:37.940Z,11.10
2018-06-15T07:06:42.277Z,9.93
2018-06-15T07:09:47.336Z,13.67
2018-06-15T07:12:52.492Z,8.43
2018-06-15T07:15:56.830Z,9.20
2018-06-15T07:19:01.412Z,10.70
2018-06-15T07:22:05.723Z,8.67
2018-06-15T07:25:10.010Z,6.87
2018-06-15T07:28:14.323Z,7.67
2018-06-15T07:31:18.763Z,7.10
2018-06-15T07:34:23.926Z,6.60
2018-06-15T07:37:28.214Z,6.67
2018-06-15T07:40:32.778Z,7.57
2018-06-15T07:43:37.119Z,8.77
2018-06-15T07:46:41.515Z,7.73
2018-06-15T07:49:45.829Z,7.80
2018-06-15T07:52:52.403Z,8.03
2018-06-15T07:55:56.779Z,7.20
2018-06-15T07:59:01.957Z,10.20
2018-06-15T08:02:07.203Z,7.87
2018-06-15T08:05:11.530Z,8.27
2018-06-15T08:08:16.110Z,8.93
2018-06-15T08:11:20.475Z,7.20
2018-06-15T08:14:25.432Z,11.07
2018-06-15T08:17:29.728Z,13.43
2018-06-15T08:20:34.149Z,10.40
2018-06-15T08:23:38.468Z,7.93
2018-06-15T08:26:42.740Z,11.77
2018-06-15T08:29:48.055Z,6.73
2018-06-15T08:32:52.380Z,7.37
2018-06-15T08:35:56.545Z,7.27
2018-06-15T08:39:01.006Z,8.60
2018-06-15T08:42:05.883Z,7.90
2018-06-15T08:45:10.265Z,7.40
2018-06-15T08:48:15.187Z,6.10
2018-06-15T08:51:19.512Z,7.50
2018-06-15T08:54:23.894Z,4.50
2018-06-15T08:57:34.599Z,6.50
2018-06-15T09:00:38.957Z,7.27
2018-06-15T09:03:43.343Z,5.83
2018-06-15T09:06:48.697Z,8.37
2018-06-15T09:09:53.015Z,6.13
2018-06-15T09:12:57.326Z,5.70
2018-06-15T09:16:01.655Z,6.47
2018-06-15T09:19:05.986Z,7.30
2018-06-15T09:22:10.336Z,5.47
2018-06-15T09:25:15.094Z,5.43
2018-06-15T09:28:19.686Z,4.60
2018-06-15T09:31:24.145Z,7.53
2018-06-15T09:34:29.357Z,8.27
2018-06-15T09:37:34.484Z,4.60
2018-06-15T09:40:38.900Z,4.70
2018-06-15T09:43:43.352Z,5.83
2018-06-15T09:46:47.718Z,6.87
2018-06-15T09:49:52.157Z,5.70
2018-06-15T09:52:56.620Z,5.67
2018-06-15T09:56:00.939Z,5.50
2018-06-15T09:59:05.309Z,6.13
2018-06-15T10:02:09.557Z,6.17
2018-06-15T10:05:13.795Z,5.27
2018-06-15T10:08:19.083Z,4.93
2018-06-15T10:11:23.803Z,5.50
2018-06-15T10:14:29.060Z,6.67
2018-06-15T10:17:35.394Z,6.73
2018-06-15T10:20:40.351Z,7.03
2018-06-15T10:23:44.679Z,5.80
2018-06-15T10:26:49.114Z,6.70
2018-06-15T10:29:53.447Z,5.30
2018-06-15T10:32:57.650Z,7.60
2018-06-15T10:36:02.179Z,7.23
2018-06-15T10:39:09.449Z,7.00
2018-06-15T10:42:15.037Z,9.17
2018-06-15T10:45:20.053Z,6.10
2018-06-15T10:48:25.310Z,7.07
2018-06-15T10:51:29.695Z,8.93
2018-06-15T10:54:34.524Z,6.70
2018-06-15T10:57:38.851Z,9.67
2018-06-15T11:00:42.989Z,5.47
2018-06-15T11:03:48.309Z,6.23
2018-06-15T11:06:52.698Z,5.83
2018-06-15T11:09:56.991Z,6.33
2018-06-15T11:13:01.332Z,5.27
2018-06-15T11:16:05.814Z,6.70
2018-06-15T11:19:10.177Z,4.60
2018-06-15T11:22:15.292Z,7.70
2018-06-15T11:25:20.502Z,5.47
2018-06-15T11:28:25.508Z,4.50
2018-06-15T11:31:29.891Z,5.10
2018-06-15T11:34:34.555Z,6.90
2018-06-15T11:37:38.915Z,5.27
2018-06-15T11:40:43.173Z,6.87
2018-06-15T11:43:48.494Z,5.97
2018-06-15T11:46:52.839Z,4.67
2018-06-15T11:49:57.190Z,5.03
2018-06-15T11:53:01.530Z,6.00
2018-06-15T11:56:06.041Z,5.83
2018-06-15T11:59:10.270Z,3.97
2018-06-15T12:02:14.766Z,5.30
2018-06-15T12:05:19.691Z,6.73
2018-06-15T12:08:24.084Z,5.60
2018-06-15T12:11:28.276Z,5.10
2018-06-15T12:14:33.497Z,3.90
2018-06-15T12:17:37.900Z,6.43
2018-06-15T12:20:42.232Z,4.37
2018-06-15T12:23:46.665Z,4.03
2018-06-15T12:26:51.099Z,5.57
2018-06-15T12:29:57.116Z,5.30
2018-06-15T12:33:01.414Z,4.00
2018-06-15T12:36:07.025Z,3.20
2018-06-15T12:39:11.644Z,5.23
2018-06-15T12:42:15.960Z,5.67
2018-06-15T12:45:20.433Z,4.90
2018-06-15T12:48:25.497Z,4.03
2018-06-15T12:51:31.072Z,4.37
2018-06-15T12:54:35.456Z,4.57
2018-06-15T12:57:39.689Z,3.93
2018-06-15T13:00:44.030Z,3.90
2018-06-15T13:03:49.317Z,3.67
2018-06-15T13:06:54.062Z,6.20
2018-06-15T13:09:59.023Z,3.00
2018-06-15T13:13:03.366Z,3.97
2018-06-15T13:16:07.598Z,3.67
2018-06-15T13:19:11.792Z,3.87
2018-06-15T13:22:16.334Z,3.27
2018-06-15T13:25:22.441Z,4.27
2018-06-15T13:28:27.387Z,3.20
2018-06-15T13:31:32.343Z,3.53
2018-06-15T13:34:37.602Z,2.97
2018-06-15T13:37:42.082Z,3.87
2018-06-15T13:40:47.289Z,5.37
2018-06-15T13:43:51.733Z,3.37
2018-06-15T13:46:56.058Z,4.20
2018-06-15T13:50:01.036Z,3.47
2018-06-15T13:53:05.686Z,3.27
2018-06-15T13:56:10.066Z,3.33
2018-06-15T13:59:15.047Z,4.57
2018-06-15T14:02:20.011Z,3.97
2018-06-15T14:05:24.868Z,4.33
2018-06-15T14:08:29.182Z,3.37
2018-06-15T14:11:33.841Z,4.83
2018-06-15T14:14:38.213Z,2.87
2018-06-15T14:17:42.712Z,3.00
2018-06-15T14:20:47.086Z,3.53
2018-06-15T14:23:51.510Z,3.60
2018-06-15T14:26:55.756Z,2.83
2018-06-15T14:30:00.043Z,3.77
2018-06-15T14:33:04.312Z,2.90
2018-06-15T14:36:08.720Z,3.73
2018-06-15T14:39:13.236Z,2.93
2018-06-15T14:42:17.476Z,2.83
2018-06-15T14:45:21.682Z,3.00
2018-06-15T14:48:26.277Z,3.00
2018-06-15T14:51:30.808Z,2.73
2018-06-15T14:54:35.359Z,3.20
2018-06-15T14:57:39.614Z,4.80
2018-06-15T15:00:44.061Z,4.77
2018-06-15T15:03:48.522Z,3.13
2018-06-15T15:06:54.647Z,4.80
2018-06-15T15:09:58.969Z,3.03
2018-06-15T15:13:03.205Z,3.90
2018-06-15T15:16:07.627Z,2.83
2018-06-15T15:19:11.941Z,6.03
2018-06-15T15:22:16.380Z,2.70
2018-06-15T15:25:23.396Z,4.37
2018-06-15T15:28:27.751Z,4.30
2018-06-15T15:31:32.928Z,4.83
2018-06-15T15:34:39.433Z,2.80
2018-06-15T15:37:43.346Z,3.80
2018-06-15T15:40:47.670Z,5.07
2018-06-15T15:43:52.026Z,3.10
2018-06-15T15:46:56.413Z,2.93
2018-06-15T15:50:01.976Z,3.17
2018-06-15T15:53:06.284Z,3.00
2018-06-15T15:56:10.962Z,3.23
2018-06-15T15:59:15.623Z,3.00
2018-06-15T16:02:20.209Z,3.70
2018-06-15T16:05:30.425Z,4.03
2018-06-15T16:11:51.302Z,4.63
2018-06-15T16:14:56.229Z,7.33
2018-06-15T16:18:00.562Z,5.27
2018-06-15T16:21:04.986Z,4.87
2018-06-15T16:24:09.328Z,5.37
2018-06-15T16:27:13.235Z,3.93
2018-06-15T16:30:18.147Z,5.50
2018-06-15T16:33:22.321Z,3.97
2018-06-15T16:36:27.061Z,8.07
2018-06-15T16:39:31.635Z,4.50
2018-06-15T16:42:36.142Z,5.37
2018-06-15T16:45:40.461Z,5.20
2018-06-15T16:48:44.747Z,6.90
2018-06-15T16:51:49.676Z,5.53
2018-06-15T16:54:54.006Z,7.70
2018-06-15T16:57:59.192Z,6.83
2018-06-15T17:01:03.505Z,4.53
2018-06-15T17:04:07.824Z,6.57
2018-06-15T17:07:12.080Z,6.03
2018-06-15T17:10:16.579Z,6.10
2018-06-15T17:13:20.879Z,5.33
2018-06-15T17:16:26.053Z,6.00
2018-06-15T17:19:31.612Z,5.70
2018-06-15T17:22:38.749Z,7.07
2018-06-15T17:25:43.346Z,5.30
2018-06-15T17:28:48.110Z,8.53
2018-06-15T17:31:53.253Z,5.27
2018-06-15T17:34:57.531Z,5.60
2018-06-15T17:38:01.841Z,5.43
2018-06-15T17:41:06.232Z,8.67
2018-06-15T17:44:10.841Z,5.80
2018-06-15T17:47:15.267Z,7.63
2018-06-15T17:50:21.319Z,6.27
2018-06-15T17:53:26.563Z,7.10
2018-06-15T17:56:33.229Z,5.53
2018-06-15T17:59:37.372Z,6.20
2018-06-15T18:02:41.914Z,6.17
2018-06-15T18:05:48.902Z,7.37
2018-06-15T18:08:53.324Z,7.50
2018-06-15T18:11:57.652Z,7.50
2018-06-15T18:15:02.216Z,8.80
2018-06-15T18:18:07.200Z,5.40
2018-06-15T18:21:11.594Z,7.23
2018-06-15T18:24:16.913Z,5.03
2018-06-15T18:27:22.674Z,5.17
2018-06-15T18:30:27.271Z,5.10
2018-06-15T18:33:34.025Z,6.10
2018-06-15T18:36:39.435Z,5.93
2018-06-15T18:39:43.841Z,5.90
2018-06-15T18:42:48.147Z,5.00
2018-06-15T18:45:55.113Z,5.33
2018-06-15T18:49:02.748Z,5.80
2018-06-15T18:52:08.262Z,5.17
2018-06-15T18:55:12.784Z,6.20
2018-06-15T18:58:19.160Z,7.10
2018-06-15T19:01:24.003Z,6.27
2018-06-15T19:04:29.097Z,5.40
2018-06-15T19:07:33.639Z,7.03
2018-06-15T19:10:37.969Z,6.80
2018-06-15T19:13:42.222Z,6.90
2018-06-15T19:16:46.602Z,5.40
2018-06-15T19:19:50.896Z,7.17
2018-06-15T19:22:55.550Z,8.37
2018-06-15T19:25:59.943Z,7.80
2018-06-15T19:29:06.608Z,8.33
2018-06-15T19:32:10.796Z,6.10
2018-06-15T19:35:15.477Z,7.07
2018-06-15T19:38:19.776Z,6.07
2018-06-15T19:41:25.131Z,6.67
2018-06-15T19:44:30.335Z,11.90
2018-06-15T19:47:34.569Z,7.60
2018-06-15T19:50:38.877Z,11.13
2018-06-15T19:53:43.283Z,8.43
2018-06-15T19:56:47.505Z,6.60
2018-06-15T19:59:52.024Z,9.03
2018-06-15T20:02:56.930Z,9.90
2018-06-15T20:06:01.669Z,10.67
2018-06-15T20:09:08.016Z,6.47
2018-06-15T20:12:12.341Z,6.90
2018-06-15T20:15:17.038Z,6.33
2018-06-15T20:18:22.357Z,7.60
2018-06-15T20:21:27.200Z,5.60
2018-06-15T20:24:33.055Z,6.83
2018-06-15T20:27:38.788Z,9.13
2018-06-15T20:30:43.117Z,7.67
2018-06-15T20:33:47.481Z,8.60
2018-06-15T20:36:51.866Z,11.33
2018-06-15T20:39:56.535Z,12.50
2018-06-15T20:43:00.905Z,7.13
2018-06-15T20:46:05.060Z,7.87
2018-06-15T20:49:09.599Z,6.77
2018-06-15T20:52:14.021Z,12.33
2018-06-15T20:55:19.148Z,7.00
2018-06-15T20:58:23.473Z,9.70
2018-06-15T21:01:27.724Z,5.70
2018-06-15T21:04:32.128Z,7.67
2018-06-15T21:07:36.419Z,8.40
2018-06-15T21:10:40.743Z,7.00
2018-06-15T21:13:45.322Z,6.00
2018-06-15T21:16:49.723Z,6.30
2018-06-15T21:19:54.113Z,8.13
2018-06-15T21:22:59.725Z,5.67
2018-06-15T21:26:04.038Z,6.80
2018-06-15T21:29:08.970Z,7.87
2018-06-15T21:32:13.336Z,5.57
2018-06-15T21:35:18.553Z,8.67
2018-06-15T21:38:22.835Z,5.97
2018-06-15T21:41:27.113Z,6.63
2018-06-15T21:44:31.296Z,7.70
2018-06-15T21:47:35.507Z,7.23
2018-06-15T21:50:40.103Z,7.83
2018-06-15T21:53:44.409Z,8.23
2018-06-15T21:56:48.682Z,6.70
2018-06-15T21:59:52.960Z,7.77
2018-06-15T22:02:57.612Z,6.43
2018-06-15T22:06:02.950Z,5.97
2018-06-15T22:09:08.033Z,6.87
2018-06-15T22:12:12.258Z,8.40
2018-06-15T22:15:16.616Z,6.20
2018-06-15T22:18:21.879Z,7.50
2018-06-15T22:21:26.184Z,5.47
2018-06-15T22:24:32.054Z,8.07
2018-06-15T22:27:37.108Z,5.57
2018-06-15T22:30:41.372Z,7.03
2018-06-15T22:33:45.628Z,7.17
2018-06-15T22:36:50.052Z,6.83
2018-06-15T22:39:54.938Z,8.77
2018-06-15T22:43:02.616Z,8.17
2018-06-15T22:46:06.992Z,7.07
2018-06-15T22:49:13.125Z,7.20
2018-06-15T22:52:17.529Z,7.60
2018-06-15T22:55:23.755Z,6.57
2018-06-15T22:58:28.672Z,6.13
2018-06-15T23:01:34.633Z,5.80
2018-06-15T23:04:39.101Z,9.03
2018-06-15T23:07:43.623Z,6.97
2018-06-15T23:10:48.321Z,6.13
2018-06-15T23:13:52.745Z,7.33
2018-06-15T23:16:57.554Z,8.23
2018-06-15T23:20:01.812Z,8.17
2018-06-15T23:23:06.624Z,7.20
2018-06-15T23:26:10.806Z,6.27
2018-06-15T23:29:16.215Z,7.73
2018-06-15T23:32:20.504Z,8.03
2018-06-15T23:35:24.787Z,7.67
2018-06-15T23:38:29.243Z,6.47
2018-06-15T23:41:34.435Z,6.77
2018-06-15T23:44:39.138Z,7.40
2018-06-15T23:47:43.407Z,8.27
2018-06-15T23:50:47.593Z,8.33
2018-06-15T23:53:52.191Z,7.43
2018-06-15T23:56:57.750Z,7.30
